createdAt,value
2023-05-16T00:01:13.725Z,6.30
2023-05-16T00:03:44.185Z,6.00
2023-05-16T00:06:15.701Z,6.50
2023-05-16T00:08:46.023Z,7.50
2023-05-16T00:11:17.411Z,7.90
2023-05-16T00:13:47.791Z,7.70
2023-05-16T00:16:18.244Z,7.20
2023-05-16T00:18:49.851Z,6.50
2023-05-16T00:21:23.554Z,6.10
2023-05-16T00:24:01.893Z,6.20
2023-05-16T00:26:32.229Z,6.60
2023-05-16T00:29:03.067Z,5.50
2023-05-16T00:31:34.461Z,6.00
2023-05-16T00:34:04.855Z,5.90
2023-05-16T00:36:35.957Z,6.50
2023-05-16T00:39:06.482Z,5.90
2023-05-16T00:41:38.210Z,5.90
2023-05-16T00:44:09.568Z,5.90
2023-05-16T00:46:40.040Z,5.70
2023-05-16T00:49:10.999Z,6.40
2023-05-16T00:51:41.981Z,7.40
2023-05-16T00:54:13.516Z,6.40
2023-05-16T00:56:44.038Z,6.80
2023-05-16T00:59:14.387Z,6.40
2023-05-16T01:01:48.079Z,6.10
2023-05-16T01:04:20.581Z,5.70
2023-05-16T01:06:51.161Z,6.30
2023-05-16T01:09:22.062Z,6.30
2023-05-16T01:11:58.216Z,7.30
2023-05-16T01:14:37.268Z,8.20
2023-05-16T01:17:15.533Z,7.80
2023-05-16T01:20:06.531Z,8.30
2023-05-16T01:22:53.562Z,8.40
2023-05-16T01:25:39.409Z,8.00
2023-05-16T01:28:11.904Z,9.30
2023-05-16T01:30:43.160Z,9.20
2023-05-16T01:33:13.577Z,8.60
2023-05-16T01:35:54.380Z,7.60
2023-05-16T01:38:28.176Z,8.80
2023-05-16T01:41:05.496Z,8.20
2023-05-16T01:43:43.214Z,8.00
2023-05-16T01:46:16.242Z,8.30
2023-05-16T01:48:53.906Z,7.80
2023-05-16T01:51:30.730Z,7.50
2023-05-16T01:54:06.448Z,7.90
2023-05-16T01:56:39.627Z,8.10
2023-05-16T01:59:13.245Z,8.70
2023-05-16T02:01:43.771Z,8.90
2023-05-16T02:04:15.349Z,8.00
2023-05-16T02:06:46.160Z,7.50
2023-05-16T02:09:16.587Z,8.30
2023-05-16T02:11:47.689Z,8.00
2023-05-16T02:14:18.089Z,8.40
2023-05-16T02:16:49.326Z,7.50
2023-05-16T02:19:20.836Z,8.30
2023-05-16T02:21:51.660Z,7.70
2023-05-16T02:24:22.209Z,7.70
2023-05-16T02:26:52.527Z,7.80
2023-05-16T02:29:22.979Z,6.60
2023-05-16T02:31:53.282Z,7.10
2023-05-16T02:34:23.622Z,6.50
2023-05-16T02:36:53.916Z,6.80
2023-05-16T02:39:25.958Z,6.00
2023-05-16T02:41:56.294Z,5.60
2023-05-16T02:44:26.561Z,6.20
2023-05-16T02:46:56.861Z,7.30
2023-05-16T02:49:27.246Z,6.80
2023-05-16T02:51:57.744Z,6.00
2023-05-16T02:54:28.080Z,6.70
2023-05-16T02:56:58.650Z,7.30
2023-05-16T02:59:29.135Z,7.40
2023-05-16T03:01:59.899Z,6.80
2023-05-16T03:04:30.398Z,7.00
2023-05-16T03:07:01.219Z,6.20
2023-05-16T03:09:31.509Z,6.90
2023-05-16T03:12:01.881Z,6.50
2023-05-16T03:14:32.152Z,7.10
2023-05-16T03:17:02.557Z,7.20
2023-05-16T03:19:32.900Z,7.30
2023-05-16T03:22:04.080Z,7.20
2023-05-16T03:24:34.566Z,7.00
2023-05-16T03:27:05.917Z,7.70
2023-05-16T03:29:36.541Z,8.00
2023-05-16T03:32:07.819Z,7.80
2023-05-16T03:34:38.250Z,7.40
2023-05-16T03:37:10.969Z,8.30
2023-05-16T03:39:41.312Z,7.60
2023-05-16T03:42:11.707Z,7.50
2023-05-16T03:44:42.037Z,7.10
2023-05-16T03:47:12.566Z,7.20
2023-05-16T03:49:42.906Z,7.20
2023-05-16T03:52:13.380Z,7.50
2023-05-16T03:54:43.701Z,7.60
2023-05-16T03:57:14.008Z,7.40
2023-05-16T03:59:44.396Z,7.20
2023-05-16T04:02:16.827Z,8.60
2023-05-16T04:04:49.215Z,7.20
2023-05-16T04:07:20.817Z,8.00
2023-05-16T04:09:53.723Z,7.20
2023-05-16T04:12:24.066Z,7.50
2023-05-16T04:14:54.321Z,7.10
2023-05-16T04:17:24.645Z,7.60
2023-05-16T04:19:54.969Z,8.10
2023-05-16T04:22:25.340Z,7.30
2023-05-16T04:24:55.777Z,7.70
2023-05-16T04:27:26.844Z,6.50
2023-05-16T04:29:57.371Z,8.00
2023-05-16T04:32:29.116Z,7.20
2023-05-16T04:35:00.151Z,7.30
2023-05-16T04:37:31.201Z,7.50
2023-05-16T04:40:01.509Z,6.80
2023-05-16T04:42:32.700Z,7.90
2023-05-16T04:45:06.481Z,7.60
2023-05-16T04:47:36.951Z,9.00
2023-05-16T04:50:09.887Z,8.50
2023-05-16T04:52:40.276Z,7.40
2023-05-16T04:55:12.551Z,6.60
2023-05-16T04:57:42.909Z,6.80
2023-05-16T05:00:16.408Z,9.30
2023-05-16T05:02:46.837Z,7.70
2023-05-16T05:05:17.409Z,9.70
2023-05-16T05:07:48.387Z,7.00
2023-05-16T05:10:18.771Z,6.70
2023-05-16T05:12:49.139Z,8.80
2023-05-16T05:15:19.690Z,6.60
2023-05-16T05:17:50.165Z,6.60
2023-05-16T05:20:20.816Z,7.50
2023-05-16T05:22:51.168Z,6.70
2023-05-16T05:25:21.733Z,7.20
2023-05-16T05:27:52.184Z,7.50
2023-05-16T05:30:22.540Z,7.20
2023-05-16T05:32:53.471Z,6.90
2023-05-16T05:35:23.858Z,7.70
2023-05-16T05:37:54.791Z,6.90
2023-05-16T05:40:25.096Z,6.50
2023-05-16T05:42:55.463Z,6.40
2023-05-16T05:45:26.017Z,6.10
2023-05-16T05:47:56.910Z,5.90
2023-05-16T05:50:27.275Z,7.60
2023-05-16T05:52:57.738Z,6.00
2023-05-16T05:55:28.462Z,7.30
2023-05-16T05:57:59.026Z,5.60
2023-05-16T06:00:29.706Z,5.60
2023-05-16T06:03:00.600Z,6.80
2023-05-16T06:05:31.169Z,6.30
2023-05-16T06:08:01.665Z,6.90
2023-05-16T06:10:31.954Z,6.50
2023-05-16T06:13:02.296Z,6.30
2023-05-16T06:15:32.588Z,6.40
2023-05-16T06:18:03.087Z,6.50
2023-05-16T06:20:33.655Z,6.60
2023-05-16T06:23:03.977Z,5.90
2023-05-16T06:25:34.373Z,6.90
2023-05-16T06:28:04.810Z,6.50
2023-05-16T06:30:35.276Z,6.50
2023-05-16T06:33:05.960Z,6.10
2023-05-16T06:35:36.427Z,6.60
2023-05-16T06:38:06.793Z,7.80
2023-05-16T06:40:37.658Z,6.50
2023-05-16T06:43:08.054Z,5.90
2023-05-16T06:45:38.525Z,7.30
2023-05-16T06:48:09.965Z,6.80
2023-05-16T06:50:40.305Z,8.00
2023-05-16T06:53:12.172Z,7.10
2023-05-16T06:55:42.587Z,7.30
2023-05-16T06:58:12.909Z,7.90
2023-05-16T07:00:44.185Z,7.50
2023-05-16T07:03:16.235Z,5.50
2023-05-16T07:05:46.726Z,8.00
2023-05-16T07:08:17.231Z,6.10
2023-05-16T07:10:47.730Z,8.10
2023-05-16T07:13:27.271Z,7.10
2023-05-16T07:15:57.654Z,8.20
2023-05-16T07:18:28.049Z,6.80
2023-05-16T07:20:58.548Z,7.80
2023-05-16T07:23:31.217Z,7.20
2023-05-16T07:26:02.055Z,8.50
2023-05-16T07:28:32.456Z,7.00
2023-05-16T07:31:02.896Z,7.40
2023-05-16T07:33:33.868Z,7.40
2023-05-16T07:36:15.958Z,6.90
2023-05-16T07:38:48.887Z,7.50
2023-05-16T07:41:19.245Z,7.10
2023-05-16T07:43:49.611Z,8.30
2023-05-16T07:46:20.115Z,6.80
2023-05-16T07:48:51.567Z,6.40
2023-05-16T07:51:22.023Z,7.00
2023-05-16T07:53:52.911Z,7.40
2023-05-16T07:56:23.794Z,6.80
2023-05-16T07:58:54.655Z,6.20
2023-05-16T08:01:26.346Z,6.30
2023-05-16T08:03:56.902Z,6.40
2023-05-16T08:06:29.480Z,6.80
2023-05-16T08:08:59.915Z,7.20
2023-05-16T08:11:30.624Z,6.70
2023-05-16T08:14:01.091Z,6.40
2023-05-16T08:16:31.545Z,6.10
2023-05-16T08:19:01.960Z,6.90
2023-05-16T08:21:33.043Z,6.80
2023-05-16T08:24:05.655Z,7.90
2023-05-16T08:26:37.489Z,7.20
2023-05-16T08:29:07.841Z,7.20
2023-05-16T08:31:38.294Z,6.50
2023-05-16T08:34:09.447Z,7.10
2023-05-16T08:36:39.903Z,6.10
2023-05-16T08:39:11.649Z,7.00
2023-05-16T08:41:42.374Z,6.10
2023-05-16T08:44:13.315Z,7.10
2023-05-16T08:46:45.696Z,7.10
2023-05-16T08:49:17.270Z,6.10
2023-05-16T08:51:49.203Z,7.40
2023-05-16T08:54:19.719Z,6.90
2023-05-16T08:56:51.414Z,6.70
2023-05-16T08:59:24.207Z,7.00
2023-05-16T09:01:55.635Z,7.00
2023-05-16T09:04:27.732Z,6.80
2023-05-16T09:06:58.542Z,7.80
2023-05-16T09:09:30.156Z,7.20
2023-05-16T09:12:01.063Z,6.60
2023-05-16T09:14:32.106Z,6.80
2023-05-16T09:17:12.313Z,6.00
2023-05-16T09:19:44.597Z,7.20
2023-05-16T09:22:16.733Z,7.10
2023-05-16T09:24:48.582Z,6.00
2023-05-16T09:27:19.404Z,6.70
2023-05-16T09:29:54.256Z,6.60
2023-05-16T09:32:24.990Z,6.50
2023-05-16T09:34:58.610Z,6.70
2023-05-16T09:37:29.309Z,5.90
2023-05-16T09:39:59.841Z,6.50
2023-05-16T09:42:30.200Z,6.30
2023-05-16T09:45:04.137Z,7.40
2023-05-16T09:47:34.559Z,7.50
2023-05-16T09:50:05.423Z,6.00
2023-05-16T09:52:35.836Z,7.00
2023-05-16T09:55:09.970Z,6.00
2023-05-16T09:57:41.386Z,6.70
2023-05-16T10:00:14.561Z,7.70
2023-05-16T10:02:46.046Z,6.90
2023-05-16T10:05:17.823Z,8.80
2023-05-16T10:07:48.248Z,6.90
2023-05-16T10:10:19.496Z,7.70
2023-05-16T10:12:50.263Z,8.40
2023-05-16T10:15:22.000Z,7.20
2023-05-16T10:17:54.808Z,8.70
2023-05-16T10:20:27.116Z,8.10
2023-05-16T10:22:59.484Z,7.80
2023-05-16T10:25:34.039Z,8.80
2023-05-16T10:28:05.526Z,9.50
2023-05-16T10:30:37.480Z,7.80
2023-05-16T10:33:08.043Z,7.70
2023-05-16T10:35:38.591Z,7.10
2023-05-16T10:38:12.156Z,8.50
2023-05-16T10:40:42.936Z,8.10
2023-05-16T10:43:23.716Z,9.90
2023-05-16T10:45:59.231Z,8.70
2023-05-16T10:48:34.985Z,8.90
2023-05-16T10:51:26.002Z,8.20
2023-05-16T10:54:05.418Z,7.80
2023-05-16T10:56:36.413Z,9.30
2023-05-16T10:59:23.114Z,8.90
2023-05-16T11:01:57.415Z,10.60
2023-05-16T11:04:49.421Z,9.00
2023-05-16T11:07:21.121Z,10.20
2023-05-16T11:10:06.280Z,13.00
2023-05-16T11:12:49.093Z,10.80
2023-05-16T11:15:25.587Z,9.90
2023-05-16T11:18:06.863Z,9.70
2023-05-16T11:20:38.988Z,11.10
2023-05-16T11:23:26.461Z,9.00
2023-05-16T11:26:24.884Z,10.00
2023-05-16T11:28:56.115Z,10.30
2023-05-16T11:31:26.550Z,9.20
2023-05-16T11:33:57.075Z,11.00
2023-05-16T11:36:30.847Z,10.70
2023-05-16T11:39:10.520Z,10.20
2023-05-16T11:41:41.105Z,11.20
2023-05-16T11:44:14.141Z,10.00
2023-05-16T11:46:44.618Z,11.90
2023-05-16T11:49:15.122Z,11.20
2023-05-16T11:51:45.864Z,10.30
2023-05-16T11:54:16.431Z,12.40
2023-05-16T11:56:46.881Z,11.10
2023-05-16T11:59:18.005Z,10.10
2023-05-16T12:01:49.416Z,12.60
2023-05-16T12:04:20.910Z,10.60
2023-05-16T12:07:02.311Z,10.20
2023-05-16T12:12:13.721Z,10.80
2023-05-16T12:14:45.229Z,11.50
2023-05-16T12:17:15.862Z,11.40
2023-05-16T12:19:46.721Z,12.00
2023-05-16T12:22:20.929Z,12.10
2023-05-16T12:24:51.485Z,12.30
2023-05-16T12:27:26.456Z,12.30
2023-05-16T12:29:59.121Z,13.20
2023-05-16T12:32:29.738Z,12.30
2023-05-16T12:35:02.679Z,12.20
2023-05-16T12:37:33.028Z,12.30
2023-05-16T12:40:04.485Z,12.20
2023-05-16T12:42:35.535Z,12.50
2023-05-16T12:45:06.653Z,12.70
2023-05-16T12:47:40.602Z,11.70
2023-05-16T12:50:14.549Z,12.10
2023-05-16T12:52:53.186Z,11.40
2023-05-16T12:55:24.722Z,11.10
2023-05-16T12:57:57.002Z,11.20
2023-05-16T13:00:27.672Z,11.90
2023-05-16T13:02:58.561Z,11.80
2023-05-16T13:05:28.958Z,13.30
2023-05-16T13:07:59.393Z,12.60
2023-05-16T13:10:30.430Z,13.80
2023-05-16T13:13:01.128Z,12.40
2023-05-16T13:15:31.652Z,12.40
2023-05-16T13:18:02.332Z,12.60
2023-05-16T13:20:32.879Z,13.00
2023-05-16T13:23:04.211Z,13.60
2023-05-16T13:25:35.655Z,13.60
2023-05-16T13:28:06.479Z,12.60
2023-05-16T13:30:37.247Z,13.30
2023-05-16T13:33:07.774Z,13.50
2023-05-16T13:35:38.613Z,13.20
2023-05-16T13:38:08.984Z,13.30
2023-05-16T13:40:39.364Z,13.60
2023-05-16T13:43:09.897Z,14.60
2023-05-16T13:45:40.429Z,13.10
2023-05-16T13:48:11.670Z,13.60
2023-05-16T13:50:44.322Z,14.40
2023-05-16T13:53:14.989Z,15.50
2023-05-16T13:55:45.420Z,14.80
2023-05-16T13:58:16.086Z,16.10
2023-05-16T14:00:47.839Z,14.30
2023-05-16T14:03:18.677Z,14.90
2023-05-16T14:05:49.773Z,15.20
2023-05-16T14:08:20.144Z,16.20
2023-05-16T14:10:50.504Z,14.90
2023-05-16T14:13:21.232Z,17.20
2023-05-16T14:15:51.621Z,15.60
2023-05-16T14:18:22.052Z,16.30
2023-05-16T14:20:54.529Z,16.30
2023-05-16T14:23:24.976Z,16.70
2023-05-16T14:25:56.077Z,16.40
2023-05-16T14:28:26.525Z,14.00
2023-05-16T14:30:57.089Z,17.90
2023-05-16T14:33:27.476Z,15.20
2023-05-16T14:35:57.867Z,16.20
2023-05-16T14:38:28.764Z,17.40
2023-05-16T14:40:59.193Z,16.00
2023-05-16T14:43:29.606Z,16.00
2023-05-16T14:46:00.030Z,16.20
2023-05-16T14:48:31.384Z,17.30
2023-05-16T14:51:01.867Z,16.60
2023-05-16T14:53:32.593Z,15.40
2023-05-16T14:56:03.959Z,17.80
2023-05-16T14:58:34.370Z,17.60
2023-05-16T15:01:05.719Z,17.00
2023-05-16T15:03:50.705Z,17.50
2023-05-16T15:06:24.864Z,16.10
2023-05-16T15:08:56.026Z,18.80
2023-05-16T15:11:26.321Z,16.60
2023-05-16T15:13:57.344Z,16.90
2023-05-16T15:16:27.834Z,15.80
2023-05-16T15:18:58.656Z,15.50
2023-05-16T15:21:29.148Z,16.80
2023-05-16T15:23:59.768Z,15.90
2023-05-16T15:26:30.476Z,16.70
2023-05-16T15:29:00.946Z,17.60
2023-05-16T15:31:32.254Z,16.40
2023-05-16T15:34:02.790Z,17.10
2023-05-16T15:36:33.214Z,15.40
2023-05-16T15:39:04.058Z,16.30
2023-05-16T15:41:56.994Z,16.80
2023-05-16T15:44:25.156Z,14.90
2023-05-16T15:46:55.558Z,14.30
2023-05-16T15:49:25.989Z,15.70
2023-05-16T15:51:56.459Z,16.80
2023-05-16T15:54:26.927Z,15.80
2023-05-16T15:56:57.680Z,16.00
2023-05-16T15:59:28.532Z,14.80
2023-05-16T16:01:58.918Z,14.50
2023-05-16T16:04:29.274Z,15.20
2023-05-16T16:06:59.628Z,17.30
2023-05-16T16:09:30.035Z,19.20
2023-05-16T16:12:00.509Z,17.70
2023-05-16T16:14:31.308Z,17.40
2023-05-16T16:17:01.631Z,18.30
2023-05-16T16:19:32.541Z,18.60
2023-05-16T16:22:02.904Z,16.40
2023-05-16T16:24:33.306Z,16.10
2023-05-16T16:27:03.721Z,14.70
2023-05-16T16:29:34.041Z,17.20
2023-05-16T16:32:04.437Z,15.10
2023-05-16T16:34:34.848Z,14.70
2023-05-16T16:37:05.669Z,16.30
2023-05-16T16:39:36.407Z,15.80
2023-05-16T16:42:07.717Z,14.70
2023-05-16T16:44:38.109Z,17.40
2023-05-16T16:47:08.918Z,18.20
2023-05-16T16:49:39.507Z,13.80
2023-05-16T16:52:10.175Z,15.70
2023-05-16T16:54:40.702Z,15.30
2023-05-16T16:57:11.429Z,16.20
2023-05-16T16:59:41.790Z,16.60
2023-05-16T17:02:12.177Z,12.10
2023-05-16T17:04:42.783Z,12.00
2023-05-16T17:07:13.209Z,12.10
2023-05-16T17:09:43.953Z,11.10
2023-05-16T17:12:18.993Z,10.50
2023-05-16T17:14:51.325Z,11.60
2023-05-16T17:17:21.845Z,12.40
2023-05-16T17:19:52.917Z,15.50
2023-05-16T17:22:23.290Z,10.70
2023-05-16T17:24:53.824Z,11.30
2023-05-16T17:27:24.225Z,12.80
2023-05-16T17:29:54.555Z,14.00
2023-05-16T17:32:24.937Z,12.40
2023-05-16T17:34:55.335Z,13.50
2023-05-16T17:37:26.554Z,12.20
2023-05-16T17:39:57.594Z,15.70
2023-05-16T17:42:28.025Z,15.30
2023-05-16T17:45:01.520Z,14.30
2023-05-16T17:47:31.985Z,14.10
2023-05-16T17:50:02.516Z,13.30
2023-05-16T17:52:33.037Z,14.00
2023-05-16T17:55:03.912Z,16.80
2023-05-16T17:57:34.728Z,14.90
2023-05-16T18:00:07.228Z,14.20
2023-05-16T18:02:38.757Z,13.90
2023-05-16T18:05:10.555Z,14.20
2023-05-16T18:07:41.093Z,13.30
2023-05-16T18:10:13.625Z,17.60
2023-05-16T18:12:44.377Z,18.00
2023-05-16T18:15:14.835Z,17.90
2023-05-16T18:17:45.369Z,20.00
2023-05-16T18:20:16.171Z,17.30
2023-05-16T18:22:48.027Z,17.30
2023-05-16T18:25:18.485Z,14.70
2023-05-16T18:27:48.911Z,12.70
2023-05-16T18:30:19.722Z,14.30
2023-05-16T18:32:50.165Z,17.80
2023-05-16T18:35:20.623Z,13.70
2023-05-16T18:37:51.297Z,14.30
2023-05-16T18:40:22.152Z,14.30
2023-05-16T18:42:52.872Z,15.00
2023-05-16T18:45:23.924Z,17.30
2023-05-16T18:47:54.426Z,16.60
2023-05-16T18:50:24.908Z,17.20
2023-05-16T18:52:57.624Z,16.30
2023-05-16T18:55:28.601Z,18.70
2023-05-16T18:57:59.358Z,15.70
2023-05-16T19:00:29.798Z,17.00
2023-05-16T19:03:00.302Z,15.10
2023-05-16T19:05:31.140Z,15.70
2023-05-16T19:08:02.134Z,17.40
2023-05-16T19:10:37.872Z,14.70
2023-05-16T19:13:09.008Z,15.70
2023-05-16T19:15:40.009Z,17.00
2023-05-16T19:18:11.013Z,15.40
2023-05-16T19:20:43.767Z,16.20
2023-05-16T19:23:16.400Z,14.10
2023-05-16T19:25:48.998Z,16.30
2023-05-16T19:28:19.442Z,16.10
2023-05-16T19:30:49.886Z,16.10
2023-05-16T19:33:21.393Z,16.20
2023-05-16T19:35:53.656Z,15.10
2023-05-16T19:38:25.113Z,17.50
2023-05-16T19:40:55.652Z,16.60
2023-05-16T19:43:26.220Z,17.10
2023-05-16T19:45:56.707Z,15.50
2023-05-16T19:48:28.157Z,16.60
2023-05-16T19:50:58.677Z,16.30
2023-05-16T19:53:29.120Z,18.00
2023-05-16T19:55:59.570Z,18.00
2023-05-16T19:58:29.983Z,16.70
2023-05-16T20:01:00.410Z,14.60
2023-05-16T20:03:33.884Z,15.30
2023-05-16T20:06:04.861Z,16.80
2023-05-16T20:08:35.290Z,15.90
2023-05-16T20:11:06.168Z,15.90
2023-05-16T20:13:36.546Z,15.10
2023-05-16T20:16:08.222Z,17.00
2023-05-16T20:18:38.728Z,16.20
2023-05-16T20:21:09.347Z,17.70
2023-05-16T20:23:41.111Z,15.10
2023-05-16T20:26:14.863Z,15.70
2023-05-16T20:28:45.344Z,16.90
2023-05-16T20:31:15.804Z,15.90
2023-05-16T20:33:46.960Z,15.90
2023-05-16T20:36:17.409Z,15.90
2023-05-16T20:38:47.812Z,15.70
2023-05-16T20:41:18.220Z,17.50
2023-05-16T20:43:50.627Z,13.40
2023-05-16T20:46:21.447Z,13.20
2023-05-16T20:48:52.064Z,12.90
2023-05-16T20:51:22.519Z,14.40
2023-05-16T20:53:52.871Z,14.70
2023-05-16T20:56:23.389Z,13.90
2023-05-16T20:58:53.689Z,14.50
2023-05-16T21:01:24.057Z,14.50
2023-05-16T21:03:54.566Z,13.20
2023-05-16T21:06:24.937Z,14.80
2023-05-16T21:08:55.341Z,13.90
2023-05-16T21:11:28.690Z,14.70
2023-05-16T21:13:59.057Z,13.20
2023-05-16T21:16:31.225Z,12.80
2023-05-16T21:19:04.372Z,13.40
2023-05-16T21:21:35.137Z,13.30
2023-05-16T21:24:05.797Z,12.50
2023-05-16T21:26:36.281Z,13.70
2023-05-16T21:29:06.630Z,12.60
2023-05-16T21:31:37.013Z,13.70
2023-05-16T21:34:09.641Z,13.50
2023-05-16T21:36:40.163Z,12.00
2023-05-16T21:39:10.790Z,13.10
2023-05-16T21:41:41.308Z,12.00
2023-05-16T21:44:13.487Z,11.10
2023-05-16T21:46:43.860Z,13.00
2023-05-16T21:49:14.258Z,11.80
2023-05-16T21:51:45.217Z,13.50
2023-05-16T21:54:15.802Z,11.30
2023-05-16T21:56:46.231Z,11.10
2023-05-16T21:59:16.655Z,13.20
2023-05-16T22:01:47.180Z,14.30
2023-05-16T22:04:17.638Z,10.40
2023-05-16T22:06:48.165Z,13.70
2023-05-16T22:09:18.509Z,10.40
2023-05-16T22:11:49.121Z,12.70
2023-05-16T22:14:19.552Z,10.30
2023-05-16T22:16:49.926Z,10.20
2023-05-16T22:19:20.346Z,9.80
2023-05-16T22:21:50.829Z,9.90
2023-05-16T22:24:21.681Z,10.50
2023-05-16T22:26:52.192Z,10.90
2023-05-16T22:29:22.646Z,10.30
2023-05-16T22:31:53.338Z,10.20
2023-05-16T22:34:23.885Z,10.20
2023-05-16T22:36:54.307Z,10.00
2023-05-16T22:39:24.610Z,10.60
2023-05-16T22:41:55.004Z,9.80
2023-05-16T22:44:25.355Z,10.80
2023-05-16T22:46:55.823Z,9.60
2023-05-16T22:49:26.241Z,10.40
2023-05-16T22:51:56.624Z,9.90
2023-05-16T22:54:27.094Z,9.70
2023-05-16T22:56:57.440Z,10.50
2023-05-16T22:59:27.860Z,10.60
2023-05-16T23:01:58.206Z,10.50
2023-05-16T23:04:28.638Z,11.00
2023-05-16T23:06:59.223Z,10.20
2023-05-16T23:09:29.575Z,10.20
2023-05-16T23:12:00.244Z,10.70
2023-05-16T23:14:30.713Z,10.40
2023-05-16T23:17:01.082Z,10.50
2023-05-16T23:19:31.601Z,10.50
2023-05-16T23:22:03.558Z,9.80
2023-05-16T23:24:33.946Z,10.30
2023-05-16T23:27:04.534Z,10.00
2023-05-16T23:29:35.026Z,9.40
2023-05-16T23:32:05.902Z,10.20
2023-05-16T23:34:36.291Z,9.30
2023-05-16T23:37:06.821Z,9.20
2023-05-16T23:39:37.322Z,9.70
2023-05-16T23:42:08.452Z,9.70
2023-05-16T23:44:39.738Z,8.60
2023-05-16T23:47:10.170Z,9.10
2023-05-16T23:49:40.644Z,7.70
2023-05-16T23:52:11.034Z,7.80
2023-05-16T23:54:41.521Z,7.90
2023-05-16T23:57:11.935Z,8.20
2023-05-16T23:59:42.297Z,7.60
